createdAt,value
2018-09-09T00:02:23.854Z,60.03
2018-09-09T00:04:52.100Z,60.29
2018-09-09T00:07:20.365Z,60.02
2018-09-09T00:09:50.406Z,59.87
2018-09-09T00:12:19.248Z,60.12
2018-09-09T00:14:48.012Z,60.16
2018-09-09T00:17:16.284Z,60.41
2018-09-09T00:19:44.455Z,60.66
2018-09-09T00:22:12.674Z,61.16
2018-09-09T00:24:40.804Z,61.11
2018-09-09T00:27:08.999Z,61.60
2018-09-09T00:29:37.371Z,61.39
2018-09-09T00:32:05.570Z,61.00
2018-09-09T00:34:33.782Z,61.22
2018-09-09T00:37:02.059Z,61.40
2018-09-09T00:39:30.336Z,61.14
2018-09-09T00:41:58.543Z,61.08
2018-09-09T00:44:26.757Z,60.58
2018-09-09T00:46:54.936Z,60.67
2018-09-09T00:49:28.459Z,60.68
2018-09-09T00:52:01.978Z,60.90
2018-09-09T00:54:30.191Z,61.61
2018-09-09T00:56:58.415Z,62.12
2018-09-09T00:59:27.172Z,61.47
2018-09-09T01:01:55.844Z,61.77
2018-09-09T01:04:24.163Z,61.48
2018-09-09T01:06:52.466Z,61.78
2018-09-09T01:09:24.821Z,61.49
2018-09-09T01:11:53.092Z,62.17
2018-09-09T01:14:21.271Z,62.65
2018-09-09T01:16:49.477Z,61.98
2018-09-09T01:19:17.823Z,61.65
2018-09-09T01:21:46.194Z,61.13
2018-09-09T01:24:14.443Z,60.93
2018-09-09T01:26:42.578Z,60.85
2018-09-09T01:29:10.855Z,61.44
2018-09-09T01:31:39.030Z,61.03
2018-09-09T01:34:07.258Z,61.13
2018-09-09T01:36:35.444Z,61.02
2018-09-09T01:39:04.821Z,60.32
2018-09-09T01:41:33.105Z,59.89
2018-09-09T01:44:01.368Z,59.78
2018-09-09T01:46:29.608Z,59.90
2018-09-09T01:48:57.850Z,59.54
2018-09-09T01:51:26.024Z,59.64
2018-09-09T01:53:54.357Z,59.90
2018-09-09T01:56:22.612Z,60.01
2018-09-09T01:58:50.808Z,60.28
2018-09-09T02:01:19.005Z,59.33
2018-09-09T02:03:47.154Z,60.03
2018-09-09T02:06:15.357Z,59.63
2018-09-09T02:08:43.678Z,59.82
2018-09-09T02:11:11.852Z,59.87
2018-09-09T02:13:40.320Z,59.42
2018-09-09T02:16:08.742Z,59.84
2018-09-09T02:18:36.972Z,60.18
2018-09-09T02:21:05.648Z,60.73
2018-09-09T02:23:33.864Z,59.63
2018-09-09T02:26:02.037Z,59.31
2018-09-09T02:28:30.196Z,59.44
2018-09-09T02:30:58.356Z,58.88
2018-09-09T02:33:26.555Z,58.87
2018-09-09T02:35:54.734Z,59.34
2018-09-09T02:38:22.896Z,59.36
2018-09-09T02:40:51.044Z,59.36
2018-09-09T02:43:19.785Z,59.66
2018-09-09T02:45:48.718Z,59.88
2018-09-09T02:48:16.949Z,60.13
2018-09-09T02:50:45.237Z,59.72
2018-09-09T02:53:13.405Z,59.98
2018-09-09T02:55:44.543Z,61.00
2018-09-09T02:58:14.068Z,60.91
2018-09-09T03:00:42.402Z,60.73
2018-09-09T03:03:10.648Z,60.38
2018-09-09T03:05:38.888Z,60.19
2018-09-09T03:08:07.564Z,60.46
2018-09-09T03:10:35.885Z,60.37
2018-09-09T03:13:04.058Z,60.44
2018-09-09T03:15:32.235Z,60.75
2018-09-09T03:18:00.505Z,59.66
2018-09-09T03:20:28.783Z,58.71
2018-09-09T03:22:57.088Z,58.94
2018-09-09T03:25:25.341Z,59.03
2018-09-09T03:27:53.556Z,59.96
2018-09-09T03:30:21.801Z,59.91
2018-09-09T03:32:49.991Z,59.79
2018-09-09T03:35:18.138Z,60.30
2018-09-09T03:37:46.368Z,60.03
2018-09-09T03:40:14.703Z,59.93
2018-09-09T03:42:42.926Z,60.00
2018-09-09T03:45:11.098Z,60.20
2018-09-09T03:47:39.456Z,60.78
2018-09-09T03:50:07.658Z,60.09
2018-09-09T03:52:35.871Z,60.00
2018-09-09T03:55:04.110Z,60.74
2018-09-09T03:57:32.390Z,60.24
2018-09-09T04:00:00.675Z,59.58
2018-09-09T04:02:28.836Z,59.22
2018-09-09T04:04:57.016Z,59.53
2018-09-09T04:07:25.343Z,59.42
2018-09-09T04:09:53.565Z,59.95
2018-09-09T04:12:21.838Z,59.43
2018-09-09T04:14:50.052Z,59.88
2018-09-09T04:17:18.390Z,60.22
2018-09-09T04:19:46.564Z,60.15
2018-09-09T04:22:14.750Z,60.81
2018-09-09T04:24:42.897Z,60.74
2018-09-09T04:27:11.081Z,61.31
2018-09-09T04:29:39.268Z,61.00
2018-09-09T04:32:07.493Z,61.25
2018-09-09T04:34:36.313Z,61.83
2018-09-09T04:37:04.536Z,62.10
2018-09-09T04:39:32.798Z,62.58
2018-09-09T04:42:01.003Z,62.66
2018-09-09T04:44:29.212Z,62.79
2018-09-09T04:46:57.503Z,62.95
2018-09-09T04:49:25.783Z,63.63
2018-09-09T04:51:53.955Z,63.18
2018-09-09T04:54:22.234Z,63.64
2018-09-09T04:56:50.481Z,62.87
2018-09-09T04:59:18.760Z,63.13
2018-09-09T05:01:47.039Z,63.94
2018-09-09T05:04:15.278Z,64.36
2018-09-09T05:06:43.527Z,64.64
2018-09-09T05:09:11.774Z,65.70
2018-09-09T05:11:39.991Z,66.12
2018-09-09T05:14:08.336Z,66.00
2018-09-09T05:16:36.582Z,66.26
2018-09-09T05:19:04.838Z,65.72
2018-09-09T05:21:33.012Z,65.45
2018-09-09T05:24:01.310Z,65.39
2018-09-09T05:26:29.454Z,66.06
2018-09-09T05:28:57.614Z,66.31
2018-09-09T05:31:25.752Z,65.80
2018-09-09T05:33:53.916Z,65.04
2018-09-09T05:36:22.192Z,64.28
2018-09-09T05:38:50.555Z,64.24
2018-09-09T05:41:18.728Z,64.23
2018-09-09T05:43:46.938Z,63.56
2018-09-09T05:46:15.098Z,63.19
2018-09-09T05:48:43.298Z,63.60
2018-09-09T05:51:11.444Z,63.41
2018-09-09T05:53:39.633Z,62.88
2018-09-09T05:56:07.812Z,62.46
2018-09-09T05:58:36.036Z,61.95
2018-09-09T06:01:04.236Z,60.74
2018-09-09T06:03:32.408Z,60.59
2018-09-09T06:06:00.582Z,60.73
2018-09-09T06:08:28.754Z,60.24
2018-09-09T06:10:56.929Z,59.70
2018-09-09T06:13:26.350Z,59.43
2018-09-09T06:15:54.513Z,58.32
2018-09-09T06:18:22.760Z,57.93
2018-09-09T06:20:50.964Z,57.46
2018-09-09T06:23:19.142Z,58.22
2018-09-09T06:25:47.414Z,57.98
2018-09-09T06:28:15.859Z,58.14
2018-09-09T06:30:44.088Z,56.84
2018-09-09T06:33:12.257Z,56.90
2018-09-09T06:35:40.446Z,57.54
2018-09-09T06:38:08.616Z,56.74
2018-09-09T06:40:36.748Z,57.03
2018-09-09T06:43:04.932Z,54.40
2018-09-09T06:45:33.228Z,55.62
2018-09-09T06:48:01.456Z,54.10
2018-09-09T06:50:29.670Z,54.78
2018-09-09T06:52:57.808Z,55.50
2018-09-09T06:55:26.095Z,55.91
2018-09-09T06:57:54.392Z,55.38
2018-09-09T07:00:22.745Z,55.53
2018-09-09T07:02:50.922Z,55.79
2018-09-09T07:05:19.112Z,55.40
2018-09-09T07:07:47.364Z,56.31
2018-09-09T07:10:15.543Z,56.49
2018-09-09T07:12:43.720Z,56.34
2018-09-09T07:15:11.948Z,56.07
2018-09-09T07:17:40.264Z,55.05
2018-09-09T07:20:08.543Z,54.72
2018-09-09T07:22:36.756Z,54.38
2018-09-09T07:25:04.972Z,54.92
2018-09-09T07:27:33.232Z,54.72
2018-09-09T07:30:01.544Z,54.69
2018-09-09T07:32:29.838Z,54.41
2018-09-09T07:34:58.104Z,53.93
2018-09-09T07:37:26.352Z,54.10
2018-09-09T07:39:54.528Z,52.69
2018-09-09T07:42:22.778Z,51.91
2018-09-09T07:44:51.164Z,51.23
2018-09-09T07:47:19.473Z,49.56
2018-09-09T07:49:47.705Z,49.30
2018-09-09T07:52:16.342Z,48.82
2018-09-09T07:54:44.565Z,49.44
2018-09-09T07:57:12.850Z,49.50
2018-09-09T07:59:41.026Z,49.64
2018-09-09T08:02:09.178Z,49.77
2018-09-09T08:04:37.333Z,49.59
2018-09-09T08:07:05.515Z,49.38
2018-09-09T08:09:33.619Z,49.18
2018-09-09T08:12:02.009Z,49.40
2018-09-09T08:14:30.278Z,47.71
2018-09-09T08:16:58.800Z,48.36
2018-09-09T08:19:27.023Z,48.28
2018-09-09T08:21:55.186Z,48.24
2018-09-09T08:24:23.331Z,47.57
2018-09-09T08:26:51.458Z,46.99
2018-09-09T08:29:19.734Z,47.21
2018-09-09T08:31:47.977Z,46.84
2018-09-09T08:34:16.125Z,46.41
2018-09-09T08:36:44.499Z,45.97
2018-09-09T08:39:13.196Z,45.54
2018-09-09T08:41:41.388Z,45.38
2018-09-09T08:44:10.327Z,44.86
2018-09-09T08:46:38.592Z,44.40
2018-09-09T08:49:07.385Z,45.13
2018-09-09T08:51:35.656Z,45.13
2018-09-09T08:54:03.881Z,44.08
2018-09-09T08:56:32.150Z,44.02
2018-09-09T08:59:00.375Z,43.31
2018-09-09T09:01:28.692Z,43.63
2018-09-09T09:03:56.917Z,41.54
2018-09-09T09:06:25.192Z,40.82
2018-09-09T09:08:53.386Z,41.49
2018-09-09T09:11:21.619Z,40.74
2018-09-09T09:13:49.963Z,40.28
2018-09-09T09:16:18.187Z,39.84
2018-09-09T09:18:46.359Z,40.73
2018-09-09T09:21:14.568Z,41.50
2018-09-09T09:23:42.988Z,40.21
2018-09-09T09:26:11.281Z,40.47
2018-09-09T09:28:39.586Z,41.01
2018-09-09T09:31:08.087Z,40.05
2018-09-09T09:33:36.324Z,39.47
2018-09-09T09:36:04.494Z,39.50
2018-09-09T09:38:32.702Z,40.52
2018-09-09T09:41:00.895Z,40.07
2018-09-09T09:43:29.124Z,38.86
2018-09-09T09:45:57.339Z,39.55
2018-09-09T09:48:25.546Z,38.36
2018-09-09T09:50:53.822Z,37.29
2018-09-09T09:53:22.029Z,38.06
2018-09-09T09:55:50.379Z,39.08
2018-09-09T09:58:18.548Z,39.01
2018-09-09T10:00:52.092Z,39.16
2018-09-09T10:03:20.266Z,37.79
2018-09-09T10:05:48.522Z,37.75
2018-09-09T10:08:17.432Z,38.63
2018-09-09T10:10:45.646Z,38.76
2018-09-09T10:13:13.854Z,38.36
2018-09-09T10:15:42.559Z,38.91
2018-09-09T10:18:11.356Z,37.76
2018-09-09T10:20:39.531Z,38.02
2018-09-09T10:23:08.110Z,36.95
2018-09-09T10:25:36.275Z,36.56
2018-09-09T10:28:04.452Z,36.73
2018-09-09T10:30:32.636Z,36.57
2018-09-09T10:33:00.854Z,35.89
2018-09-09T10:35:29.117Z,35.63
2018-09-09T10:37:57.259Z,35.43
2018-09-09T10:40:25.749Z,35.85
2018-09-09T10:42:53.886Z,34.42
2018-09-09T10:45:22.116Z,35.12
2018-09-09T10:47:50.287Z,35.13
2018-09-09T10:50:18.515Z,34.25
2018-09-09T10:52:46.783Z,34.68
2018-09-09T10:55:14.982Z,34.60
2018-09-09T10:57:43.195Z,34.03
2018-09-09T11:00:11.352Z,33.40
2018-09-09T11:02:39.603Z,33.76
2018-09-09T11:05:07.816Z,34.41
2018-09-09T11:07:35.986Z,34.01
2018-09-09T11:10:04.281Z,34.13
2018-09-09T11:12:32.934Z,34.08
2018-09-09T11:15:02.156Z,34.48
2018-09-09T11:17:31.157Z,33.80
2018-09-09T11:19:59.544Z,33.62
2018-09-09T11:22:28.783Z,33.89
2018-09-09T11:24:57.107Z,32.54
2018-09-09T11:27:25.881Z,32.94
2018-09-09T11:29:54.254Z,33.31
2018-09-09T11:32:22.521Z,34.17
2018-09-09T11:34:50.717Z,32.92
2018-09-09T11:37:18.901Z,33.36
2018-09-09T11:39:47.074Z,33.63
2018-09-09T11:42:15.412Z,33.46
2018-09-09T11:44:43.717Z,33.34
2018-09-09T11:47:11.985Z,32.54
2018-09-09T11:49:40.207Z,32.56
2018-09-09T11:52:08.599Z,33.28
2018-09-09T11:54:38.780Z,33.16
2018-09-09T11:57:07.052Z,32.85
2018-09-09T11:59:35.212Z,33.00
2018-09-09T12:02:03.611Z,33.14
2018-09-09T12:04:31.821Z,32.81
2018-09-09T12:06:59.969Z,32.88
2018-09-09T12:09:28.221Z,32.67
2018-09-09T12:11:56.436Z,33.23
2018-09-09T12:14:24.733Z,32.29
2018-09-09T12:16:53.014Z,33.05
2018-09-09T12:19:21.391Z,32.85
2018-09-09T12:21:49.765Z,32.81
2018-09-09T12:24:17.940Z,31.95
2018-09-09T12:26:46.200Z,32.08
2018-09-09T12:29:14.506Z,31.16
2018-09-09T12:31:42.730Z,31.46
2018-09-09T12:34:11.738Z,32.07
2018-09-09T12:36:39.928Z,31.93
2018-09-09T12:39:08.642Z,32.58
2018-09-09T12:41:37.091Z,32.22
2018-09-09T12:48:53.223Z,32.07
2018-09-09T12:51:21.456Z,32.39
2018-09-09T12:53:49.802Z,31.60
2018-09-09T12:56:17.972Z,33.07
2018-09-09T12:58:47.230Z,33.07
2018-09-09T13:01:15.345Z,32.76
2018-09-09T13:03:43.550Z,32.68
2018-09-09T13:06:11.769Z,31.75
2018-09-09T13:08:40.117Z,32.77
2018-09-09T13:11:08.318Z,32.32
2018-09-09T13:13:36.538Z,32.32
2018-09-09T13:16:04.727Z,31.42
2018-09-09T13:18:32.874Z,31.04
2018-09-09T13:21:01.088Z,31.38
2018-09-09T13:23:29.283Z,31.70
2018-09-09T13:25:57.486Z,30.86
2018-09-09T13:28:25.665Z,31.99
2018-09-09T13:30:54.509Z,30.97
2018-09-09T13:33:22.712Z,31.43
2018-09-09T13:35:50.901Z,31.47
2018-09-09T13:38:19.198Z,30.68
2018-09-09T13:40:47.336Z,31.79
2018-09-09T13:43:15.586Z,31.78
2018-09-09T13:45:43.786Z,32.56
2018-09-09T13:48:12.162Z,31.38
2018-09-09T13:50:40.433Z,31.42
2018-09-09T13:53:08.653Z,30.91
2018-09-09T13:55:36.915Z,32.02
2018-09-09T13:58:05.337Z,31.67
2018-09-09T14:00:33.607Z,31.31
2018-09-09T14:03:01.810Z,30.78
2018-09-09T14:05:30.267Z,31.48
2018-09-09T14:07:58.448Z,31.30
2018-09-09T14:10:27.449Z,32.09
2018-09-09T14:12:55.614Z,30.80
2018-09-09T14:15:23.821Z,30.89
2018-09-09T14:17:51.999Z,30.98
2018-09-09T14:20:20.277Z,31.52
2018-09-09T14:22:48.653Z,31.65
2018-09-09T14:25:16.825Z,31.69
2018-09-09T14:27:45.886Z,30.75
2018-09-09T14:30:14.123Z,31.11
2018-09-09T14:32:42.429Z,31.11
2018-09-09T14:35:10.611Z,31.35
2018-09-09T14:37:38.814Z,31.34
2018-09-09T14:40:07.216Z,31.48
2018-09-09T14:42:35.874Z,30.93
2018-09-09T14:45:04.880Z,30.54
2018-09-09T14:47:33.120Z,31.36
2018-09-09T14:50:01.310Z,30.50
2018-09-09T14:52:29.650Z,31.30
2018-09-09T14:54:57.940Z,31.10
2018-09-09T14:57:26.091Z,32.26
2018-09-09T14:59:54.341Z,32.30
2018-09-09T15:02:22.582Z,31.79
2018-09-09T15:04:50.814Z,31.21
2018-09-09T15:07:19.018Z,31.84
2018-09-09T15:09:47.232Z,32.47
2018-09-09T15:12:15.486Z,31.84
2018-09-09T15:14:43.696Z,32.50
2018-09-09T15:17:12.777Z,32.26
2018-09-09T15:19:41.004Z,32.36
2018-09-09T15:22:09.298Z,32.51
2018-09-09T15:24:37.607Z,32.39
2018-09-09T15:27:05.941Z,32.81
2018-09-09T15:29:34.138Z,32.14
2018-09-09T15:32:02.525Z,31.63
2018-09-09T15:34:30.812Z,32.41
2018-09-09T15:36:59.115Z,32.34
2018-09-09T15:39:27.331Z,31.98
2018-09-09T15:41:55.800Z,32.47
2018-09-09T15:44:23.992Z,31.85
2018-09-09T15:46:52.138Z,31.92
2018-09-09T15:49:20.224Z,33.03
2018-09-09T15:51:48.563Z,32.88
2018-09-09T15:54:16.916Z,33.02
2018-09-09T15:56:45.209Z,32.64
2018-09-09T15:59:13.628Z,33.21
2018-09-09T16:01:41.834Z,32.91
2018-09-09T16:04:10.041Z,32.59
2018-09-09T16:06:38.285Z,32.93
2018-09-09T16:09:08.233Z,33.00
2018-09-09T16:11:36.445Z,33.24
2018-09-09T16:14:04.753Z,33.13
2018-09-09T16:16:32.896Z,33.42
2018-09-09T16:19:01.182Z,33.19
2018-09-09T16:21:29.410Z,33.69
2018-09-09T16:23:57.815Z,32.73
2018-09-09T16:26:25.992Z,33.10
2018-09-09T16:28:54.188Z,33.18
2018-09-09T16:31:22.398Z,34.17
2018-09-09T16:33:50.673Z,34.51
2018-09-09T16:36:18.864Z,34.97
2018-09-09T16:38:47.042Z,34.25
2018-09-09T16:41:15.259Z,35.07
2018-09-09T16:43:43.612Z,34.48
2018-09-09T16:46:11.786Z,34.59
2018-09-09T16:48:40.065Z,34.69
2018-09-09T16:51:08.300Z,35.32
2018-09-09T16:53:36.502Z,34.69
2018-09-09T16:56:04.827Z,35.56
2018-09-09T16:58:33.055Z,35.46
2018-09-09T17:01:01.371Z,35.00
2018-09-09T17:03:29.696Z,34.83
2018-09-09T17:05:57.883Z,34.97
2018-09-09T17:08:26.192Z,35.59
2018-09-09T17:10:55.168Z,35.25
2018-09-09T17:13:23.618Z,35.80
2018-09-09T17:15:51.818Z,35.67
2018-09-09T17:18:20.221Z,36.02
2018-09-09T17:20:48.559Z,36.71
2018-09-09T17:23:17.010Z,36.85
2018-09-09T17:25:45.252Z,37.59
2018-09-09T17:28:14.165Z,38.55
2018-09-09T17:30:42.350Z,38.64
2018-09-09T17:33:10.647Z,38.77
2018-09-09T17:35:39.153Z,38.84
2018-09-09T17:38:07.539Z,38.60
2018-09-09T17:40:36.161Z,38.94
2018-09-09T17:43:04.484Z,38.62
2018-09-09T17:45:32.816Z,38.17
2018-09-09T17:48:01.086Z,38.17
2018-09-09T17:50:30.543Z,39.14
2018-09-09T17:52:59.288Z,39.26
2018-09-09T17:55:27.553Z,40.21
2018-09-09T17:57:55.831Z,40.50
2018-09-09T18:00:24.261Z,40.58
2018-09-09T18:02:52.532Z,40.36
2018-09-09T18:05:20.907Z,41.39
2018-09-09T18:07:49.315Z,41.85
2018-09-09T18:10:17.967Z,41.67
2018-09-09T18:12:46.405Z,41.25
2018-09-09T18:15:14.772Z,40.99
2018-09-09T18:17:43.183Z,42.02
2018-09-09T18:20:11.463Z,42.35
2018-09-09T18:22:39.748Z,42.32
2018-09-09T18:25:07.950Z,42.77
2018-09-09T18:27:36.178Z,42.95
2018-09-09T18:30:04.472Z,43.30
2018-09-09T18:32:32.727Z,44.08
2018-09-09T18:35:01.316Z,44.64
2018-09-09T18:37:29.488Z,44.13
2018-09-09T18:39:57.860Z,44.37
2018-09-09T18:42:26.226Z,44.79
2018-09-09T18:44:54.624Z,45.09
2018-09-09T18:47:23.177Z,45.13
2018-09-09T18:49:51.486Z,45.40
2018-09-09T18:52:25.916Z,45.73
2018-09-09T18:54:54.418Z,45.48
2018-09-09T18:57:22.718Z,46.25
2018-09-09T18:59:50.987Z,47.09
2018-09-09T19:02:19.473Z,46.60
2018-09-09T19:04:47.888Z,47.78
2018-09-09T19:07:16.333Z,47.31
2018-09-09T19:09:45.732Z,47.83
2018-09-09T19:12:13.973Z,48.66
2018-09-09T19:14:43.075Z,48.71
2018-09-09T19:17:12.035Z,49.32
2018-09-09T19:19:40.748Z,49.11
2018-09-09T19:22:09.354Z,49.05
2018-09-09T19:24:37.709Z,49.59
2018-09-09T19:27:06.710Z,49.09
2018-09-09T19:29:34.976Z,49.62
2018-09-09T19:32:03.264Z,49.90
2018-09-09T19:34:32.032Z,49.88
2018-09-09T19:37:00.465Z,50.38
2018-09-09T19:39:28.890Z,50.50
2018-09-09T19:41:57.525Z,50.43
2018-09-09T19:44:25.835Z,50.98
2018-09-09T19:46:54.164Z,50.69
2018-09-09T19:49:26.265Z,51.72
2018-09-09T19:51:55.177Z,50.95
2018-09-09T19:54:23.764Z,51.47
2018-09-09T19:56:52.099Z,52.24
2018-09-09T19:59:20.574Z,52.85
2018-09-09T20:01:49.584Z,52.21
2018-09-09T20:04:17.970Z,52.98
2018-09-09T20:06:46.482Z,52.96
2018-09-09T20:09:14.725Z,53.23
2018-09-09T20:11:43.754Z,53.39
2018-09-09T20:14:12.110Z,53.45
2018-09-09T20:16:40.496Z,53.55
2018-09-09T20:19:09.181Z,53.68
2018-09-09T20:21:37.404Z,53.77
2018-09-09T20:24:06.402Z,54.39
2018-09-09T20:26:35.021Z,53.80
2018-09-09T20:29:03.582Z,53.79
2018-09-09T20:31:31.951Z,54.45
2018-09-09T20:34:00.262Z,54.59
2018-09-09T20:36:28.476Z,54.90
2018-09-09T20:38:56.766Z,55.01
2018-09-09T20:41:25.746Z,55.58
2018-09-09T20:43:54.123Z,55.99
2018-09-09T20:46:22.393Z,56.18
2018-09-09T20:48:51.263Z,56.21
2018-09-09T20:51:19.545Z,56.47
2018-09-09T20:53:47.762Z,56.39
2018-09-09T20:56:16.181Z,57.06
2018-09-09T20:58:44.401Z,57.52
2018-09-09T21:01:12.667Z,57.07
2018-09-09T21:03:41.069Z,56.84
2018-09-09T21:06:09.220Z,57.71
2018-09-09T21:08:37.391Z,57.96
2018-09-09T21:11:05.608Z,57.51
2018-09-09T21:13:33.804Z,57.20
2018-09-09T21:16:02.024Z,57.92
2018-09-09T21:18:30.218Z,57.63
2018-09-09T21:20:58.399Z,57.99
2018-09-09T21:23:26.591Z,57.58
2018-09-09T21:25:54.784Z,58.40
2018-09-09T21:28:23.787Z,57.74
2018-09-09T21:30:52.643Z,57.82
2018-09-09T21:33:21.625Z,58.48
2018-09-09T21:35:49.909Z,58.55
2018-09-09T21:38:19.027Z,58.48
2018-09-09T21:40:47.247Z,58.92
2018-09-09T21:43:16.795Z,58.55
2018-09-09T21:45:45.576Z,59.19
2018-09-09T21:48:20.745Z,59.06
2018-09-09T21:50:49.544Z,59.53
2018-09-09T21:53:17.717Z,59.61
2018-09-09T21:55:45.901Z,59.75
2018-09-09T21:58:14.131Z,59.84
2018-09-09T22:00:47.732Z,59.85
2018-09-09T22:03:15.935Z,60.15
2018-09-09T22:05:44.107Z,60.04
2018-09-09T22:08:12.330Z,59.86
2018-09-09T22:10:40.558Z,60.38
2018-09-09T22:13:08.843Z,59.98
2018-09-09T22:15:37.038Z,60.50
2018-09-09T22:18:05.215Z,60.67
2018-09-09T22:20:33.573Z,61.48
2018-09-09T22:23:01.762Z,61.22
2018-09-09T22:25:30.139Z,61.87
2018-09-09T22:27:58.526Z,61.54
2018-09-09T22:30:26.697Z,61.01
2018-09-09T22:32:54.855Z,61.13
2018-09-09T22:35:23.145Z,60.58
2018-09-09T22:37:51.322Z,60.64
2018-09-09T22:40:19.544Z,60.80
2018-09-09T22:42:47.819Z,60.42
2018-09-09T22:45:16.015Z,60.38
2018-09-09T22:47:44.302Z,61.73
2018-09-09T22:50:12.568Z,62.07
2018-09-09T22:52:40.793Z,61.96
2018-09-09T22:55:08.967Z,62.12
2018-09-09T22:57:37.272Z,62.33
2018-09-09T23:00:05.792Z,62.60
2018-09-09T23:02:33.957Z,63.14
2018-09-09T23:05:02.138Z,62.55
2018-09-09T23:07:30.303Z,62.92
2018-09-09T23:09:58.605Z,63.03
2018-09-09T23:12:26.826Z,62.95
2018-09-09T23:14:55.137Z,63.04
2018-09-09T23:17:23.484Z,63.40
2018-09-09T23:19:51.689Z,64.25
2018-09-09T23:22:19.826Z,64.46
2018-09-09T23:24:48.017Z,64.23
2018-09-09T23:27:16.232Z,64.35
2018-09-09T23:29:44.391Z,64.83
2018-09-09T23:32:12.635Z,65.16
2018-09-09T23:34:40.843Z,64.85
2018-09-09T23:37:09.217Z,64.95
2018-09-09T23:39:37.416Z,65.46
2018-09-09T23:42:05.634Z,65.27
2018-09-09T23:44:33.819Z,66.03
2018-09-09T23:47:02.190Z,65.98
2018-09-09T23:49:30.365Z,66.21
2018-09-09T23:51:58.501Z,66.34
2018-09-09T23:54:26.710Z,67.32
2018-09-09T23:56:54.915Z,66.58
2018-09-09T23:59:23.058Z,66.47
